Time;durP1;ratioP1;P1;durP2;ratioP2;P2;SDS_P1;SDS_P2;PMS_P1;PMS_P2;Temp;Humidity;BMP_temperature;BMP_pressure;BME280_temperature;BME280_humidity;BME280_pressure;Samples;Min_cycle;Max_cycle;Signal;HPM_P1;HPM_P2
2024/02/23 00:01:26;;;;;;;13.77;13.07;;;11.60;15.90;;;;;;4778846;29;20195;-47
2024/02/23 00:03:52;;;;;;;14.57;13.67;;;11.60;1.00;;;;;;4782853;29;20223;-58
2024/02/23 00:06:18;;;;;;;14.17;13.40;;;11.60;1.00;;;;;;4787751;29;20184;-54
2024/02/23 00:08:43;;;;;;;13.93;13.13;;;11.60;1.00;;;;;;4794141;29;20285;-57
2024/02/23 00:11:09;;;;;;;14.97;14.07;;;11.60;1.00;;;;;;4787028;29;20500;-57
2024/02/23 00:13:35;;;;;;;14.20;13.40;;;11.60;1.00;;;;;;4788274;29;20484;-56
2024/02/23 00:16:01;;;;;;;14.17;13.37;;;11.60;1.00;;;;;;4788180;29;20256;-54
2024/02/23 00:18:26;;;;;;;14.80;13.90;;;11.70;1.00;;;;;;4776027;29;20519;-56
2024/02/23 00:20:52;;;;;;;14.87;13.97;;;11.70;1.00;;;;;;4781585;29;20302;-57
2024/02/23 00:23:19;;;;;;;14.40;13.60;;;11.70;99.90;;;;;;4783897;29;20684;-58
2024/02/23 00:25:44;;;;;;;14.30;13.50;;;11.80;99.90;;;;;;4780255;29;20188;-58
2024/02/23 00:28:10;;;;;;;14.33;13.53;;;11.80;1.00;;;;;;4777812;29;20474;-57
2024/02/23 00:30:36;;;;;;;14.10;13.33;;;11.80;1.00;;;;;;4784771;29;20194;-59
2024/02/23 00:33:01;;;;;;;14.00;13.20;;;11.80;36.80;;;;;;4785886;29;20647;-57
2024/02/23 00:35:27;;;;;;;13.90;13.20;;;11.80;1.00;;;;;;4781563;29;20257;-57
2024/02/23 00:37:52;;;;;;;13.90;13.20;;;11.90;1.00;;;;;;4776552;29;20203;-57
2024/02/23 00:40:18;;;;;;;14.10;13.40;;;11.90;1.00;;;;;;4780876;29;20191;-58
2024/02/23 00:42:44;;;;;;;13.00;12.40;;;11.90;1.00;;;;;;4791355;29;20266;-57
2024/02/23 00:45:09;;;;;;;13.67;12.97;;;11.90;99.90;;;;;;4786351;29;20261;-58
2024/02/23 00:47:37;;;;;;;13.40;12.70;;;11.90;99.90;;;;;;4779594;29;20195;-58
2024/02/23 00:50:03;;;;;;;13.73;13.03;;;11.90;1.00;;;;;;4785257;29;20195;-58
2024/02/23 00:52:29;;;;;;;13.50;12.83;;;11.90;1.00;;;;;;4779463;29;20509;-59
2024/02/23 00:54:55;;;;;;;13.70;13.10;;;11.90;99.90;;;;;;4786248;29;20481;-56
2024/02/23 00:57:27;;;;;;;13.70;12.90;;;11.90;99.90;;;;;;4779400;29;20221;-58
2024/02/23 00:59:52;;;;;;;13.00;12.40;;;11.80;99.90;;;;;;4788854;29;20187;-54
2024/02/23 01:02:18;;;;;;;13.00;12.30;;;11.80;99.90;;;;;;4780697;29;20476;-57
2024/02/23 01:04:44;;;;;;;13.27;12.57;;;11.70;1.00;;;;;;4783275;29;20194;-57
2024/02/23 01:07:10;;;;;;;12.77;12.07;;;11.60;1.00;;;;;;4783952;29;20186;-56
2024/02/23 01:09:36;;;;;;;14.13;13.40;;;11.60;39.70;;;;;;4789699;29;20196;-57
2024/02/23 01:12:02;;;;;;;13.80;13.10;;;11.60;1.00;;;;;;4787689;29;20520;-58
2024/02/23 01:14:27;;;;;;;13.53;12.80;;;11.50;59.20;;;;;;4788093;29;21151;-59
2024/02/23 01:16:53;;;;;;;13.10;12.40;;;11.50;99.90;;;;;;4780568;29;20191;-58
2024/02/23 01:19:19;;;;;;;13.20;12.53;;;11.50;99.90;;;;;;4780709;29;20276;-58
2024/02/23 01:21:44;;;;;;;13.37;12.70;;;11.50;99.90;;;;;;4783814;29;20198;-58
2024/02/23 01:24:10;;;;;;;13.27;12.67;;;11.50;99.90;;;;;;4795059;29;20210;-58
2024/02/23 01:26:36;;;;;;;12.60;11.90;;;11.50;99.90;;;;;;4782380;29;20270;-53
2024/02/23 01:29:03;;;;;;;12.63;12.03;;;11.60;39.70;;;;;;4794172;29;20190;-58
2024/02/23 01:31:29;;;;;;;11.80;11.30;;;11.70;1.00;;;;;;4784100;29;20857;-57
2024/02/23 01:33:54;;;;;;;11.63;11.13;;;11.70;99.90;;;;;;4789487;29;20452;-57
2024/02/23 01:36:20;;;;;;;11.37;10.87;;;11.80;99.90;;;;;;4780768;29;20279;-58
2024/02/23 01:38:46;;;;;;;11.00;10.60;;;12.10;1.00;;;;;;4789008;29;20217;-56
2024/02/23 01:41:12;;;;;;;10.80;10.40;;;12.40;99.90;;;;;;4784344;29;20219;-57
2024/02/23 01:43:37;;;;;;;11.30;10.80;;;12.80;24.70;;;;;;4787878;29;20567;-58
2024/02/23 01:46:04;;;;;;;11.30;10.90;;;12.90;1.00;;;;;;4782634;29;20203;-57
2024/02/23 01:48:32;;;;;;;11.17;10.77;;;13.00;1.00;;;;;;4792354;29;20194;-55
2024/02/23 01:50:58;;;;;;;11.30;10.80;;;13.00;1.00;;;;;;4792936;29;20475;-57
2024/02/23 01:53:25;;;;;;;11.03;10.57;;;13.00;1.00;;;;;;4789475;29;20534;-57
2024/02/23 01:55:53;;;;;;;11.63;11.13;;;13.10;1.00;;;;;;4793761;29;20203;-58
2024/02/23 01:58:19;;;;;;;11.10;10.67;;;13.10;1.00;;;;;;4787731;29;21042;-59
2024/02/23 02:00:45;;;;;;;11.20;10.80;;;13.20;1.00;;;;;;4780669;29;20475;-58
2024/02/23 02:03:11;;;;;;;11.00;10.60;;;13.20;1.00;;;;;;4780328;29;21087;-59
2024/02/23 02:05:37;;;;;;;10.93;10.53;;;13.20;1.00;;;;;;4789355;29;20448;-60
2024/02/23 02:08:04;;;;;;;10.07;9.67;;;13.20;1.00;;;;;;4780690;29;20194;-56
2024/02/23 02:10:29;;;;;;;11.10;10.60;;;13.20;1.00;;;;;;4787713;29;20443;-57
2024/02/23 02:12:55;;;;;;;11.23;10.73;;;13.10;1.00;;;;;;4789010;29;20999;-58
2024/02/23 02:15:21;;;;;;;11.00;10.60;;;13.10;1.00;;;;;;4791673;29;20190;-57
2024/02/23 02:17:47;;;;;;;11.27;10.77;;;13.10;1.00;;;;;;4784101;29;20260;-49
2024/02/23 02:20:14;;;;;;;10.40;10.00;;;13.10;1.00;;;;;;4785078;29;21185;-58
2024/02/23 02:22:39;;;;;;;10.67;10.27;;;13.00;1.00;;;;;;4783026;29;21048;-58
2024/02/23 02:25:06;;;;;;;11.17;10.67;;;13.00;1.00;;;;;;4781748;29;20452;-58
2024/02/23 02:27:31;;;;;;;11.10;10.70;;;12.90;1.00;;;;;;4785719;29;20278;-58
2024/02/23 02:29:57;;;;;;;11.10;10.70;;;12.90;1.00;;;;;;4790512;29;20424;-58
2024/02/23 02:32:23;;;;;;;11.53;10.67;;;12.90;1.00;;;;;;4780303;29;20635;-59
2024/02/23 02:34:49;;;;;;;10.90;10.40;;;12.90;1.00;;;;;;4787004;29;20440;-59
2024/02/23 02:37:15;;;;;;;10.97;10.57;;;12.80;1.00;;;;;;4784337;29;20201;-58
2024/02/23 02:39:41;;;;;;;10.80;10.40;;;12.80;1.00;;;;;;4782799;29;20452;-49
2024/02/23 02:42:07;;;;;;;10.90;10.50;;;12.80;1.00;;;;;;4790677;29;20462;-57
2024/02/23 02:44:32;;;;;;;10.90;10.50;;;12.70;1.00;;;;;;4780538;29;20195;-57
2024/02/23 02:46:58;;;;;;;10.73;10.33;;;12.60;1.00;;;;;;4787596;29;20256;-57
2024/02/23 02:49:24;;;;;;;10.80;10.40;;;12.70;1.00;;;;;;4778282;29;21332;-58
2024/02/23 02:51:50;;;;;;;10.80;10.40;;;12.60;1.00;;;;;;4779771;29;20195;-59
2024/02/23 02:54:16;;;;;;;10.90;10.50;;;12.60;1.00;;;;;;4789972;29;20203;-58
2024/02/23 02:56:46;;;;;;;10.70;10.30;;;12.50;1.00;;;;;;4780421;29;20467;-55
2024/02/23 02:59:12;;;;;;;11.00;10.50;;;12.50;1.00;;;;;;4787531;29;20944;-56
2024/02/23 03:01:38;;;;;;;12.03;11.17;;;12.60;1.00;;;;;;4779146;29;20540;-58
2024/02/23 03:04:04;;;;;;;11.10;10.70;;;12.50;1.00;;;;;;4785471;29;20484;-59
2024/02/23 03:06:29;;;;;;;10.80;10.40;;;12.40;1.00;;;;;;4779369;29;20517;-57
2024/02/23 03:08:55;;;;;;;10.83;10.33;;;12.40;1.00;;;;;;4778004;29;20278;-58
2024/02/23 03:11:21;;;;;;;11.00;10.60;;;12.40;1.00;;;;;;4789564;29;20557;-58
2024/02/23 03:13:46;;;;;;;10.23;9.83;;;12.30;1.00;;;;;;4785902;29;20242;-58
2024/02/23 03:16:23;;;;;;;11.07;10.67;;;12.30;1.00;;;;;;4793157;29;20706;-58
2024/02/23 03:18:48;;;;;;;10.73;10.33;;;12.20;1.00;;;;;;4785505;29;20194;-58
2024/02/23 03:21:15;;;;;;;10.63;10.23;;;12.30;1.00;;;;;;4789322;29;20458;-57
2024/02/23 03:23:40;;;;;;;11.10;10.60;;;12.20;1.00;;;;;;4789463;29;20246;-57
2024/02/23 03:26:07;;;;;;;10.90;10.40;;;12.10;1.00;;;;;;4788835;29;20530;-55
2024/02/23 03:28:33;;;;;;;10.90;10.20;;;12.10;1.00;;;;;;4777548;29;20207;-61
2024/02/23 03:30:59;;;;;;;10.80;10.40;;;12.10;1.00;;;;;;4793324;29;21125;-55
2024/02/23 03:33:25;;;;;;;10.10;9.70;;;12.10;1.00;;;;;;4782208;29;20232;-58
2024/02/23 03:35:51;;;;;;;10.77;10.37;;;12.00;1.00;;;;;;4782435;29;20890;-58
2024/02/23 03:38:16;;;;;;;10.47;10.07;;;12.00;1.00;;;;;;4784538;29;21233;-57
2024/02/23 03:40:42;;;;;;;10.30;9.90;;;11.90;1.00;;;;;;4787401;29;20732;-57
2024/02/23 03:43:07;;;;;;;10.90;10.40;;;11.90;1.00;;;;;;4782544;29;20284;-57
2024/02/23 03:45:33;;;;;;;10.60;10.10;;;12.00;1.00;;;;;;4779762;29;20203;-58
2024/02/23 03:47:59;;;;;;;10.00;9.60;;;11.90;1.00;;;;;;4781975;29;20195;-56
2024/02/23 03:50:25;;;;;;;9.80;9.50;;;11.90;1.00;;;;;;4778215;29;20206;-58
2024/02/23 03:52:51;;;;;;;10.60;10.10;;;11.80;1.00;;;;;;4778977;29;20528;-58
2024/02/23 03:55:16;;;;;;;10.30;9.90;;;11.90;1.00;;;;;;4788211;29;20210;-58
2024/02/23 03:57:42;;;;;;;10.50;10.00;;;11.90;1.00;;;;;;4792932;29;20225;-57
2024/02/23 04:00:09;;;;;;;9.70;9.30;;;11.90;1.00;;;;;;4784237;29;20202;-58
2024/02/23 04:02:34;;;;;;;10.40;10.00;;;11.90;1.00;;;;;;4784871;29;20224;-56
2024/02/23 04:05:00;;;;;;;10.37;9.97;;;11.90;1.00;;;;;;4790733;29;20455;-58
2024/02/23 04:07:26;;;;;;;10.40;10.00;;;11.80;1.00;;;;;;4784119;29;20195;-53
2024/02/23 04:09:54;;;;;;;10.13;9.73;;;11.80;1.00;;;;;;4783596;29;20230;-55
2024/02/23 04:12:23;;;;;;;10.17;9.80;;;11.60;1.00;;;;;;4784211;29;20276;-53
2024/02/23 04:14:49;;;;;;;10.23;9.83;;;11.50;1.00;;;;;;4788065;29;20984;-58
2024/02/23 04:17:15;;;;;;;10.10;9.70;;;11.50;1.00;;;;;;4780512;29;20456;-58
2024/02/23 04:19:41;;;;;;;9.80;9.40;;;11.50;1.00;;;;;;4786157;29;20190;-58
2024/02/23 04:22:09;;;;;;;10.33;9.93;;;11.40;1.00;;;;;;4782931;29;20543;-55
2024/02/23 04:24:39;;;;;;;9.90;9.50;;;11.30;1.00;;;;;;4786085;29;21007;-58
2024/02/23 04:27:08;;;;;;;9.90;9.50;;;11.20;1.00;;;;;;4785540;29;20459;-56
2024/02/23 04:29:34;;;;;;;10.40;9.90;;;11.20;1.00;;;;;;4783064;29;20527;-58
2024/02/23 04:32:01;;;;;;;10.40;10.00;;;11.10;1.00;;;;;;4790714;29;20440;-57
2024/02/23 04:34:27;;;;;;;10.50;10.00;;;11.10;1.00;;;;;;4788732;29;20437;-57
2024/02/23 04:36:52;;;;;;;9.47;9.17;;;11.00;1.00;;;;;;4787938;29;20512;-56
2024/02/23 04:39:18;;;;;;;10.00;9.60;;;10.90;1.00;;;;;;4784480;29;20449;-57
2024/02/23 04:41:44;;;;;;;9.77;9.37;;;10.90;1.00;;;;;;4788248;29;20750;-43
2024/02/23 04:44:09;;;;;;;9.67;9.27;;;10.90;1.00;;;;;;4793727;29;20305;-43
2024/02/23 04:46:35;;;;;;;9.77;9.30;;;10.80;1.00;;;;;;4791100;29;20310;-50
2024/02/23 04:49:01;;;;;;;9.53;9.13;;;10.80;1.00;;;;;;4786831;29;20276;-43
2024/02/23 04:51:27;;;;;;;9.70;9.30;;;10.70;1.00;;;;;;4789901;29;20187;-43
2024/02/23 04:53:52;;;;;;;9.30;8.97;;;10.60;99.90;;;;;;4780994;29;20510;-43
2024/02/23 04:56:19;;;;;;;9.50;9.00;;;10.60;99.90;;;;;;4781232;29;20187;-44
2024/02/23 04:58:44;;;;;;;8.53;8.23;;;10.50;99.90;;;;;;4790518;29;20216;-46
2024/02/23 05:01:10;;;;;;;9.40;9.00;;;10.50;99.90;;;;;;4789609;29;20907;-46
2024/02/23 05:03:37;;;;;;;9.50;9.07;;;10.50;99.90;;;;;;4780969;29;20234;-48
2024/02/23 05:06:04;;;;;;;8.97;8.67;;;10.40;99.90;;;;;;4784772;29;20355;-44
2024/02/23 05:08:30;;;;;;;8.83;8.53;;;10.30;99.90;;;;;;4782176;29;20432;-47
2024/02/23 05:10:56;;;;;;;8.40;8.07;;;10.40;99.90;;;;;;4785445;29;20445;-44
2024/02/23 05:13:22;;;;;;;9.47;9.17;;;10.30;99.90;;;;;;4793024;29;20499;-44
2024/02/23 05:15:48;;;;;;;9.40;9.00;;;10.30;99.90;;;;;;4791659;29;20451;-47
2024/02/23 05:18:13;;;;;;;8.60;8.30;;;10.30;99.90;;;;;;4787357;29;20449;-48
2024/02/23 05:20:39;;;;;;;9.20;8.90;;;10.30;1.00;;;;;;4803005;29;20202;-44
2024/02/23 05:23:05;;;;;;;9.40;9.10;;;10.30;1.00;;;;;;4786335;29;20229;-45
2024/02/23 05:25:30;;;;;;;9.20;8.80;;;10.20;1.00;;;;;;4781044;29;20243;-45
2024/02/23 05:27:56;;;;;;;9.30;8.90;;;10.20;1.00;;;;;;4786594;29;20226;-45
2024/02/23 05:30:21;;;;;;;8.63;8.33;;;10.30;1.00;;;;;;4782939;29;20201;-45
2024/02/23 05:32:47;;;;;;;9.53;9.13;;;10.20;1.00;;;;;;4787116;29;20191;-45
2024/02/23 05:35:13;;;;;;;9.53;9.13;;;10.10;1.00;;;;;;4785630;29;20191;-47
2024/02/23 05:37:39;;;;;;;9.33;9.03;;;10.00;1.00;;;;;;4787864;29;20998;-46
2024/02/23 05:40:06;;;;;;;8.33;8.03;;;10.00;1.00;;;;;;4786636;29;20194;-44
2024/02/23 05:42:32;;;;;;;8.80;8.17;;;10.00;1.00;;;;;;4791908;29;20222;-44
2024/02/23 05:44:58;;;;;;;8.57;8.13;;;9.80;1.00;;;;;;4792748;29;20434;-45
2024/02/23 05:47:23;;;;;;;8.03;7.73;;;9.90;1.00;;;;;;4787669;29;20256;-46
2024/02/23 05:49:50;;;;;;;9.40;9.00;;;9.80;1.00;;;;;;4787840;29;20224;-46
2024/02/23 05:52:16;;;;;;;8.40;8.10;;;9.80;1.00;;;;;;4788140;29;20252;-46
2024/02/23 05:54:42;;;;;;;9.30;8.90;;;9.80;1.00;;;;;;4785302;29;20526;-46
2024/02/23 05:57:08;;;;;;;9.20;8.80;;;9.80;1.00;;;;;;4787845;29;20250;-44
2024/02/23 05:59:33;;;;;;;8.87;8.57;;;9.80;99.90;;;;;;4788134;29;20214;-49
2024/02/23 06:01:59;;;;;;;9.53;9.13;;;9.80;99.90;;;;;;4783857;29;20532;-45
2024/02/23 06:04:25;;;;;;;9.40;8.80;;;9.70;99.90;;;;;;4790340;29;20760;-46
2024/02/23 06:06:51;;;;;;;8.27;7.97;;;9.70;99.90;;;;;;4787459;29;20218;-44
2024/02/23 06:09:16;;;;;;;9.50;9.20;;;9.70;99.90;;;;;;4787241;29;20190;-46
2024/02/23 06:11:42;;;;;;;9.00;8.70;;;9.70;99.90;;;;;;4786046;29;20552;-47
2024/02/23 06:14:08;;;;;;;10.10;9.40;;;9.70;99.90;;;;;;4784641;29;20245;-46
2024/02/23 06:16:34;;;;;;;8.57;8.10;;;9.70;99.90;;;;;;4784494;29;21022;-51
2024/02/23 06:19:00;;;;;;;9.00;8.60;;;9.80;99.90;;;;;;4784333;29;20460;-45
2024/02/23 06:21:26;;;;;;;8.60;8.30;;;9.70;99.90;;;;;;4780785;29;20453;-48
2024/02/23 06:23:52;;;;;;;8.10;7.70;;;9.70;99.90;;;;;;4781542;29;20475;-45
2024/02/23 06:26:18;;;;;;;9.03;8.63;;;9.70;99.90;;;;;;4786090;29;20433;-48
2024/02/23 06:28:43;;;;;;;8.77;8.20;;;9.60;99.90;;;;;;4791806;29;20470;-49
2024/02/23 06:31:10;;;;;;;7.90;7.60;;;9.60;99.90;;;;;;4784781;29;20201;-46
2024/02/23 06:33:36;;;;;;;9.07;8.67;;;9.70;99.90;;;;;;4785509;29;20654;-47
2024/02/23 06:36:03;;;;;;;9.03;8.43;;;9.60;99.90;;;;;;4783301;29;20440;-46
2024/02/23 06:38:28;;;;;;;9.10;8.70;;;9.70;99.90;;;;;;4782068;29;20511;-45
2024/02/23 06:40:56;;;;;;;8.70;8.40;;;9.70;99.90;;;;;;4788482;29;20500;-47
2024/02/23 06:43:21;;;;;;;8.37;7.97;;;9.60;99.90;;;;;;4783448;29;20882;-45
2024/02/23 06:45:47;;;;;;;9.47;9.07;;;9.60;99.90;;;;;;4784445;29;20436;-47
2024/02/23 06:48:12;;;;;;;9.87;9.23;;;9.60;99.90;;;;;;4792230;29;20202;-47
2024/02/23 06:50:38;;;;;;;8.67;8.37;;;9.60;99.90;;;;;;4784945;29;20218;-45
2024/02/23 06:53:05;;;;;;;9.20;8.70;;;9.70;99.90;;;;;;4793041;29;20244;-48
2024/02/23 06:55:30;;;;;;;8.87;8.50;;;9.60;99.90;;;;;;4780132;29;20194;-45
2024/02/23 06:57:56;;;;;;;8.77;8.27;;;9.60;99.90;;;;;;4791880;29;20719;-44
2024/02/23 07:00:22;;;;;;;8.90;8.40;;;9.50;99.90;;;;;;4786180;29;20191;-48
2024/02/23 07:02:47;;;;;;;10.87;9.90;;;9.50;99.90;;;;;;4784590;29;20210;-44
2024/02/23 07:05:14;;;;;;;9.57;9.17;;;9.50;99.90;;;;;;4785081;29;20274;-47
2024/02/23 07:07:40;;;;;;;9.40;9.00;;;9.60;99.90;;;;;;4792781;29;20183;-44
2024/02/23 07:10:06;;;;;;;9.63;9.13;;;9.50;99.90;;;;;;4789100;29;20458;-45
2024/02/23 07:12:32;;;;;;;9.60;9.20;;;9.50;99.90;;;;;;4791700;29;20439;-44
2024/02/23 07:14:58;;;;;;;9.43;9.03;;;9.60;99.90;;;;;;4787905;29;20448;-46
2024/02/23 07:17:24;;;;;;;9.07;8.67;;;9.60;99.90;;;;;;4787008;29;20199;-47
2024/02/23 07:19:50;;;;;;;9.93;9.53;;;9.60;99.90;;;;;;4785505;29;20259;-44
2024/02/23 07:22:18;;;;;;;8.70;8.30;;;9.60;99.90;;;;;;4791569;29;20438;-52
2024/02/23 07:24:44;;;;;;;9.13;8.73;;;9.60;99.90;;;;;;4787888;29;20441;-46
2024/02/23 07:27:09;;;;;;;8.97;8.60;;;9.70;99.90;;;;;;4784575;29;20428;-47
2024/02/23 07:29:35;;;;;;;9.20;8.80;;;9.70;99.90;;;;;;4784249;29;20439;-46
2024/02/23 07:32:01;;;;;;;9.20;8.80;;;9.60;99.90;;;;;;4781829;29;20214;-45
2024/02/23 07:34:27;;;;;;;9.23;8.83;;;9.50;99.90;;;;;;4778922;29;20447;-45
2024/02/23 07:36:53;;;;;;;8.90;8.50;;;9.60;99.90;;;;;;4789153;29;20447;-47
2024/02/23 07:39:20;;;;;;;8.50;8.20;;;9.60;99.90;;;;;;4792685;29;20203;-44
2024/02/23 07:41:46;;;;;;;8.47;8.17;;;9.50;99.90;;;;;;4790872;29;20424;-44
2024/02/23 07:44:11;;;;;;;8.53;8.13;;;9.50;99.90;;;;;;4789787;29;20463;-47
2024/02/23 07:46:37;;;;;;;9.00;8.60;;;9.50;99.90;;;;;;4785176;29;20197;-49
2024/02/23 07:49:05;;;;;;;8.27;7.87;;;9.60;99.90;;;;;;4786154;29;20190;-44
2024/02/23 07:51:31;;;;;;;8.53;8.23;;;9.60;99.90;;;;;;4793361;29;20450;-46
2024/02/23 07:53:57;;;;;;;9.10;8.70;;;9.50;99.90;;;;;;4798513;29;20431;-45
2024/02/23 07:56:23;;;;;;;9.33;8.93;;;9.50;99.90;;;;;;4789827;29;20459;-45
2024/02/23 07:58:48;;;;;;;8.00;7.70;;;9.50;99.90;;;;;;4794727;29;20647;-47
2024/02/23 08:01:14;;;;;;;7.00;6.70;;;9.60;99.90;;;;;;4797788;29;20725;-46
2024/02/23 08:03:40;;;;;;;7.47;7.20;;;9.60;99.90;;;;;;4792438;29;20338;-46
2024/02/23 08:06:06;;;;;;;7.70;7.40;;;9.70;99.90;;;;;;4798905;29;20431;-47
2024/02/23 08:08:35;;;;;;;7.90;7.60;;;9.70;99.90;;;;;;4790629;29;20428;-45
2024/02/23 08:11:05;;;;;;;9.07;8.57;;;9.70;99.90;;;;;;4797363;29;20528;-43
2024/02/23 08:13:31;;;;;;;8.83;8.20;;;9.70;99.90;;;;;;4785955;29;20476;-47
2024/02/23 08:15:59;;;;;;;8.80;8.50;;;9.80;99.90;;;;;;4798363;29;21326;-44
2024/02/23 08:18:25;;;;;;;7.90;7.50;;;9.80;99.90;;;;;;4785108;29;20432;-44
2024/02/23 08:20:51;;;;;;;8.67;8.27;;;9.80;99.90;;;;;;4792757;29;20442;-46
2024/02/23 08:23:19;;;;;;;8.93;8.43;;;9.80;99.90;;;;;;4785096;29;20683;-47
2024/02/23 08:25:44;;;;;;;9.60;9.20;;;9.80;99.90;;;;;;4793436;29;20476;-47
2024/02/23 08:28:10;;;;;;;9.37;8.87;;;9.90;99.90;;;;;;4793110;29;20534;-43
2024/02/23 08:30:35;;;;;;;8.77;8.37;;;9.80;99.90;;;;;;4796949;29;20179;-48
2024/02/23 08:33:01;;;;;;;7.93;7.63;;;9.90;99.90;;;;;;4794632;29;20198;-46
2024/02/23 08:35:27;;;;;;;8.20;7.90;;;9.90;99.90;;;;;;4788022;29;20194;-44
2024/02/23 08:37:52;;;;;;;9.00;8.60;;;9.90;99.90;;;;;;4789111;29;21066;-45
2024/02/23 08:40:18;;;;;;;8.03;7.73;;;9.90;99.90;;;;;;4787493;29;20194;-43
2024/02/23 08:42:43;;;;;;;8.50;8.10;;;10.00;99.90;;;;;;4791944;29;20214;-45
2024/02/23 08:45:12;;;;;;;9.20;8.80;;;9.90;99.90;;;;;;4792922;29;20589;-47
2024/02/23 08:47:38;;;;;;;9.40;9.00;;;9.90;99.90;;;;;;4791551;29;20663;-49
2024/02/23 08:50:04;;;;;;;9.30;8.90;;;9.90;99.90;;;;;;4793184;29;20527;-43
2024/02/23 08:52:30;;;;;;;8.47;8.07;;;9.80;99.90;;;;;;4790381;29;20239;-46
2024/02/23 08:54:55;;;;;;;7.93;7.63;;;9.90;99.90;;;;;;4790540;29;20919;-43
2024/02/23 08:57:22;;;;;;;8.63;8.33;;;9.80;99.90;;;;;;4792305;29;20663;-45
2024/02/23 08:59:49;;;;;;;8.93;8.53;;;9.90;99.90;;;;;;4797701;29;20205;-44
2024/02/23 09:02:14;;;;;;;8.60;8.30;;;9.90;99.90;;;;;;4780796;29;20443;-49
2024/02/23 09:04:40;;;;;;;9.30;8.80;;;10.00;99.90;;;;;;4795508;29;20460;-43
2024/02/23 09:07:06;;;;;;;8.63;8.23;;;10.00;99.90;;;;;;4792095;29;20275;-45
2024/02/23 09:09:31;;;;;;;9.10;8.60;;;10.00;99.90;;;;;;4791898;29;20271;-50
2024/02/23 09:11:58;;;;;;;9.70;9.30;;;10.10;99.90;;;;;;4789182;29;20531;-46
2024/02/23 09:14:25;;;;;;;9.20;8.80;;;10.20;99.90;;;;;;4784995;29;20234;-44
2024/02/23 09:16:51;;;;;;;9.67;9.17;;;10.20;99.90;;;;;;4787647;29;20490;-44
2024/02/23 09:19:17;;;;;;;9.67;9.27;;;10.40;99.90;;;;;;4786404;29;20439;-47
2024/02/23 09:21:42;;;;;;;9.33;8.93;;;10.50;99.90;;;;;;4788969;29;20195;-47
2024/02/23 09:24:08;;;;;;;8.60;8.30;;;10.70;99.90;;;;;;4793731;29;20765;-51
2024/02/23 09:26:34;;;;;;;8.20;7.90;;;11.20;99.90;;;;;;4789797;29;20192;-45
2024/02/23 09:28:59;;;;;;;9.53;8.87;;;11.20;99.90;;;;;;4788197;29;20206;-46
2024/02/23 09:31:26;;;;;;;9.63;9.23;;;10.90;99.90;;;;;;4787004;29;20192;-45
2024/02/23 09:33:51;;;;;;;8.87;8.57;;;10.80;99.90;;;;;;4779062;29;20236;-48
2024/02/23 09:36:17;;;;;;;8.20;7.83;;;10.80;99.90;;;;;;4793480;29;20443;-44
2024/02/23 09:38:45;;;;;;;8.90;8.53;;;10.70;99.90;;;;;;4779789;29;20179;-44
2024/02/23 09:41:19;;;;;;;9.00;8.70;;;10.60;99.90;;;;;;4785364;29;21295;-43
2024/02/23 09:43:47;;;;;;;8.30;8.00;;;10.70;99.90;;;;;;4792600;29;20472;-52
2024/02/23 09:46:14;;;;;;;9.20;8.90;;;10.60;99.90;;;;;;4787089;29;20427;-45
2024/02/23 09:48:41;;;;;;;9.30;9.00;;;10.50;99.90;;;;;;4778616;29;20839;-45
2024/02/23 09:51:09;;;;;;;9.60;9.10;;;10.60;99.90;;;;;;4782561;29;20948;-48
2024/02/23 09:53:37;;;;;;;9.20;8.90;;;10.80;99.90;;;;;;4784885;29;20446;-45
2024/02/23 09:56:04;;;;;;;8.73;8.33;;;10.90;99.90;;;;;;4783479;29;20435;-44
2024/02/23 09:58:32;;;;;;;8.90;8.50;;;10.90;99.90;;;;;;4780583;29;20440;-43
2024/02/23 10:00:59;;;;;;;8.93;8.57;;;11.00;99.90;;;;;;4782760;29;20445;-57
2024/02/23 10:03:28;;;;;;;8.17;7.87;;;11.40;99.90;;;;;;4791461;29;20471;-55
2024/02/23 10:05:54;;;;;;;7.70;7.40;;;11.70;99.90;;;;;;4787550;29;20517;-57
2024/02/23 10:08:20;;;;;;;8.43;8.03;;;12.20;99.90;;;;;;4793535;29;20447;-56
2024/02/23 10:10:47;;;;;;;8.23;7.93;;;13.00;99.90;;;;;;4794585;29;20428;-52
2024/02/23 10:13:12;;;;;;;8.00;7.70;;;13.30;99.90;;;;;;4788799;29;20697;-55
2024/02/23 10:15:38;;;;;;;8.73;8.40;;;13.00;99.90;;;;;;4781460;29;20440;-56
2024/02/23 10:18:07;;;;;;;9.50;9.10;;;12.80;99.90;;;;;;4784160;29;20197;-55
2024/02/23 10:20:32;;;;;;;8.20;7.90;;;11.90;99.90;;;;;;4790003;29;20194;-54
2024/02/23 10:22:58;;;;;;;8.63;8.23;;;11.80;99.90;;;;;;4783806;29;20483;-52
2024/02/23 10:25:23;;;;;;;9.03;8.57;;;11.80;99.90;;;;;;4779822;29;20665;-55
2024/02/23 10:27:49;;;;;;;9.00;8.50;;;11.70;99.90;;;;;;4790165;29;20237;-56
2024/02/23 10:30:15;;;;;;;8.80;8.40;;;11.70;99.90;;;;;;4789413;29;20589;-56
2024/02/23 10:32:41;;;;;;;7.73;7.43;;;11.50;99.90;;;;;;4781581;29;20194;-56
2024/02/23 10:35:14;;;;;;;7.93;7.63;;;11.40;99.90;;;;;;4786781;29;20460;-57
2024/02/23 10:37:43;;;;;;;9.00;8.60;;;11.10;99.90;;;;;;4790489;29;20489;-55
2024/02/23 10:40:12;;;;;;;7.87;7.57;;;10.90;99.90;;;;;;4789915;29;20485;-55
2024/02/23 10:42:39;;;;;;;8.70;8.40;;;10.80;99.90;;;;;;4788375;29;20467;-57
2024/02/23 10:45:06;;;;;;;9.20;8.90;;;10.90;99.90;;;;;;4783332;29;20788;-57
2024/02/23 10:47:33;;;;;;;8.50;8.20;;;11.20;99.90;;;;;;4788165;29;20899;-57
2024/02/23 10:50:02;;;;;;;8.40;8.10;;;11.20;99.90;;;;;;4790165;29;21377;-57
2024/02/23 10:52:28;;;;;;;9.60;9.20;;;11.30;99.90;;;;;;4787091;29;20515;-55
2024/02/23 10:54:55;;;;;;;7.67;7.37;;;11.30;99.90;;;;;;4788956;29;20481;-56
2024/02/23 10:57:21;;;;;;;9.47;9.07;;;11.20;99.90;;;;;;4783135;29;20452;-57
2024/02/23 10:59:47;;;;;;;8.60;8.20;;;11.00;99.90;;;;;;4790096;29;20523;-55
2024/02/23 11:02:18;;;;;;;9.30;8.90;;;10.90;99.90;;;;;;4784535;29;20430;-58
2024/02/23 11:04:50;;;;;;;8.40;8.10;;;10.70;99.90;;;;;;4780728;29;20455;-53
2024/02/23 11:07:18;;;;;;;8.90;8.50;;;10.60;99.90;;;;;;4793733;29;20531;-55
2024/02/23 11:09:49;;;;;;;9.50;9.10;;;10.50;99.90;;;;;;4785429;29;20479;-54
2024/02/23 11:12:24;;;;;;;8.53;8.23;;;10.50;99.90;;;;;;4789955;29;20462;-58
2024/02/23 11:14:50;;;;;;;8.80;8.40;;;10.40;99.90;;;;;;4787969;29;20528;-57
2024/02/23 11:17:20;;;;;;;9.10;8.80;;;10.40;99.90;;;;;;4786977;29;20535;-55
2024/02/23 11:19:49;;;;;;;9.03;8.63;;;10.60;99.90;;;;;;4789044;29;20428;-57
2024/02/23 11:22:14;;;;;;;8.83;8.50;;;10.80;99.90;;;;;;4786107;29;20609;-55
2024/02/23 11:24:45;;;;;;;9.60;9.20;;;10.80;99.90;;;;;;4789564;29;20842;-56
2024/02/23 11:27:17;;;;;;;9.37;9.00;;;10.90;99.90;;;;;;4794049;29;20182;-58
2024/02/23 11:29:43;;;;;;;8.87;8.47;;;10.90;99.90;;;;;;4790076;29;20478;-57
2024/02/23 11:32:18;;;;;;;8.57;8.27;;;11.00;99.90;;;;;;4784864;29;20429;-59
2024/02/23 11:34:56;;;;;;;9.20;8.90;;;11.30;99.90;;;;;;4787041;29;20460;-57
2024/02/23 11:37:22;;;;;;;8.63;8.33;;;11.50;99.90;;;;;;4781550;29;20429;-58
2024/02/23 11:39:49;;;;;;;8.97;8.67;;;11.60;99.90;;;;;;4787202;29;20451;-58
2024/02/23 11:42:15;;;;;;;9.17;8.87;;;11.50;99.90;;;;;;4784597;29;20183;-55
2024/02/23 11:44:41;;;;;;;9.70;9.30;;;11.30;99.90;;;;;;4788387;29;20578;-58
2024/02/23 11:47:07;;;;;;;9.20;8.70;;;11.20;99.90;;;;;;4782743;29;20423;-55
2024/02/23 11:49:33;;;;;;;9.70;9.23;;;11.00;99.90;;;;;;4792707;29;20548;-58
2024/02/23 11:51:59;;;;;;;10.20;9.63;;;10.90;99.90;;;;;;4785090;29;20463;-57
2024/02/23 11:54:25;;;;;;;9.50;9.10;;;10.90;99.90;;;;;;4786526;29;20187;-57
2024/02/23 11:56:52;;;;;;;9.10;8.70;;;10.70;99.90;;;;;;4782424;29;20416;-56
2024/02/23 11:59:20;;;;;;;10.40;9.60;;;10.70;99.90;;;;;;4779532;29;20227;-57
2024/02/23 12:01:47;;;;;;;8.90;8.50;;;10.70;99.90;;;;;;4780819;29;20424;-58
2024/02/23 12:04:14;;;;;;;9.97;9.40;;;10.90;99.90;;;;;;4788584;29;20463;-57
2024/02/23 12:06:41;;;;;;;8.83;8.50;;;11.00;99.90;;;;;;4784712;29;20974;-55
2024/02/23 12:09:08;;;;;;;9.60;9.20;;;11.00;99.90;;;;;;4787290;29;20507;-57
2024/02/23 12:11:34;;;;;;;10.17;9.67;;;11.00;99.90;;;;;;4783385;29;20497;-53
2024/02/23 12:14:07;;;;;;;9.60;9.20;;;11.10;99.90;;;;;;4779452;29;21125;-55
2024/02/23 12:16:34;;;;;;;8.80;8.50;;;11.10;99.90;;;;;;4779344;29;20441;-56
2024/02/23 12:19:01;;;;;;;8.73;8.33;;;11.20;99.90;;;;;;4784133;29;20432;-56
2024/02/23 12:21:26;;;;;;;9.50;9.10;;;11.40;99.90;;;;;;4781443;29;20425;-54
2024/02/23 12:23:53;;;;;;;8.80;8.50;;;11.40;99.90;;;;;;4781917;29;20502;-48
2024/02/23 12:26:19;;;;;;;9.67;9.27;;;11.50;99.90;;;;;;4778903;29;20198;-56
2024/02/23 12:28:48;;;;;;;9.20;8.90;;;11.60;99.90;;;;;;4779768;29;20444;-57
2024/02/23 12:31:14;;;;;;;9.23;8.83;;;11.60;99.90;;;;;;4776589;29;20629;-54
2024/02/23 12:33:41;;;;;;;9.50;9.20;;;11.60;99.90;;;;;;4776827;29;20440;-56
2024/02/23 12:36:07;;;;;;;10.00;9.50;;;11.70;99.90;;;;;;4785603;29;20440;-56
2024/02/23 12:38:33;;;;;;;8.50;8.20;;;11.70;99.90;;;;;;4787777;29;20435;-54
2024/02/23 12:41:00;;;;;;;7.80;7.50;;;11.90;99.90;;;;;;4784106;29;20428;-54